createdAt,value
2023-05-18T00:02:04.847Z,9.00
2023-05-18T00:04:34.366Z,8.90
2023-05-18T00:07:05.158Z,9.00
2023-05-18T00:09:35.392Z,9.00
2023-05-18T00:12:02.958Z,8.90
2023-05-18T00:14:29.806Z,8.90
2023-05-18T00:16:56.688Z,8.90
2023-05-18T00:19:24.236Z,8.90
2023-05-18T00:21:52.007Z,8.90
2023-05-18T00:24:18.934Z,8.90
2023-05-18T00:26:46.894Z,8.90
2023-05-18T00:29:13.720Z,8.90
2023-05-18T00:31:40.588Z,8.90
2023-05-18T00:34:11.415Z,9.00
2023-05-18T00:36:38.384Z,9.00
2023-05-18T00:39:05.908Z,8.90
2023-05-18T00:41:32.857Z,8.90
2023-05-18T00:43:59.857Z,8.90
2023-05-18T00:46:27.380Z,8.90
2023-05-18T00:48:55.055Z,8.90
2023-05-18T00:51:23.433Z,9.00
2023-05-18T00:53:53.584Z,9.00
2023-05-18T00:56:23.636Z,8.90
2023-05-18T00:58:52.317Z,8.90
2023-05-18T01:01:19.464Z,8.90
2023-05-18T01:03:46.966Z,8.90
2023-05-18T01:06:14.896Z,8.90
2023-05-18T01:08:42.908Z,9.00
2023-05-18T01:11:19.817Z,8.90
2023-05-18T01:14:23.997Z,8.90
2023-05-18T01:17:14.652Z,8.90
2023-05-18T01:19:53.805Z,8.90
2023-05-18T01:22:39.467Z,8.90
2023-05-18T01:25:47.186Z,8.90
2023-05-18T01:28:17.205Z,8.90
2023-05-18T01:30:44.092Z,9.00
2023-05-18T01:33:11.431Z,8.90
2023-05-18T01:35:38.517Z,8.90
2023-05-18T01:38:05.421Z,8.90
2023-05-18T01:40:35.411Z,8.90
2023-05-18T01:43:07.355Z,8.90
2023-05-18T01:45:34.724Z,8.90
2023-05-18T01:48:01.758Z,9.00
2023-05-18T01:50:38.775Z,8.90
2023-05-18T01:53:35.349Z,9.00
2023-05-18T01:56:02.317Z,8.90
2023-05-18T01:58:29.171Z,8.90
2023-05-18T02:00:55.997Z,8.90
2023-05-18T02:03:22.985Z,8.80
2023-05-18T02:05:49.966Z,8.80
2023-05-18T02:08:17.492Z,8.80
2023-05-18T02:10:44.294Z,8.80
2023-05-18T02:13:12.191Z,8.80
2023-05-18T02:15:39.024Z,8.80
2023-05-18T02:18:08.547Z,8.80
2023-05-18T02:20:35.458Z,8.70
2023-05-18T02:23:02.327Z,8.70
2023-05-18T02:25:29.426Z,8.70
2023-05-18T02:27:57.041Z,8.70
2023-05-18T02:30:23.845Z,8.70
2023-05-18T02:32:50.756Z,8.70
2023-05-18T02:35:20.714Z,8.70
2023-05-18T02:37:47.541Z,8.60
2023-05-18T02:40:16.072Z,8.60
2023-05-18T02:42:43.140Z,8.60
2023-05-18T02:45:10.429Z,8.60
2023-05-18T02:47:37.406Z,8.60
2023-05-18T02:50:04.534Z,8.60
2023-05-18T02:52:31.572Z,8.50
2023-05-18T02:54:58.435Z,8.60
2023-05-18T02:57:25.260Z,8.60
2023-05-18T02:59:52.078Z,8.60
2023-05-18T03:02:18.921Z,8.60
2023-05-18T03:04:49.380Z,8.60
2023-05-18T03:07:16.287Z,8.50
2023-05-18T03:09:43.097Z,8.60
2023-05-18T03:12:10.162Z,8.50
2023-05-18T03:14:36.947Z,8.50
2023-05-18T03:17:06.219Z,8.50
2023-05-18T03:19:34.986Z,8.60
2023-05-18T03:22:01.812Z,8.50
2023-05-18T03:24:30.505Z,8.50
2023-05-18T03:26:57.492Z,8.50
2023-05-18T03:29:24.296Z,8.50
2023-05-18T03:31:51.198Z,8.60
2023-05-18T03:34:18.111Z,8.60
2023-05-18T03:36:47.373Z,8.60
2023-05-18T03:39:14.316Z,8.50
2023-05-18T03:41:41.264Z,8.60
2023-05-18T03:44:08.105Z,8.50
2023-05-18T03:46:35.046Z,8.60
2023-05-18T03:49:03.347Z,8.50
2023-05-18T03:51:30.323Z,8.50
2023-05-18T03:53:57.435Z,8.50
2023-05-18T03:56:24.311Z,8.50
2023-05-18T03:58:51.536Z,8.50
2023-05-18T04:01:19.095Z,8.50
2023-05-18T04:03:46.191Z,8.60
2023-05-18T04:06:13.126Z,8.50
2023-05-18T04:08:40.519Z,8.50
2023-05-18T04:11:07.491Z,8.50
2023-05-18T04:13:34.961Z,8.50
2023-05-18T04:16:03.653Z,8.50
2023-05-18T04:18:32.246Z,8.60
2023-05-18T04:21:00.426Z,8.60
2023-05-18T04:23:28.758Z,8.60
2023-05-18T04:25:56.361Z,8.70
2023-05-18T04:28:23.238Z,8.70
2023-05-18T04:30:50.099Z,8.70
2023-05-18T04:33:16.886Z,8.70
2023-05-18T04:35:44.616Z,8.70
2023-05-18T04:38:11.576Z,8.80
2023-05-18T04:40:42.614Z,8.80
2023-05-18T04:43:10.261Z,8.80
2023-05-18T04:45:37.111Z,8.80
2023-05-18T04:48:04.113Z,8.90
2023-05-18T04:50:30.931Z,8.80
2023-05-18T04:52:58.393Z,8.80
2023-05-18T04:55:29.273Z,8.80
2023-05-18T04:57:56.987Z,8.90
2023-05-18T05:00:25.045Z,8.80
2023-05-18T05:02:52.109Z,8.90
2023-05-18T05:05:19.280Z,8.90
2023-05-18T05:07:46.197Z,8.90
2023-05-18T05:10:13.073Z,8.90
2023-05-18T05:12:41.412Z,8.90
2023-05-18T05:15:09.577Z,8.90
2023-05-18T05:17:36.652Z,8.90
2023-05-18T05:20:03.775Z,9.00
2023-05-18T05:22:30.666Z,8.90
2023-05-18T05:24:57.535Z,8.90
2023-05-18T05:27:26.242Z,8.90
2023-05-18T05:29:53.142Z,8.90
2023-05-18T05:32:19.994Z,8.90
2023-05-18T05:34:46.993Z,8.80
2023-05-18T05:37:14.230Z,8.80
2023-05-18T05:39:41.027Z,8.80
2023-05-18T05:42:08.767Z,8.90
2023-05-18T05:44:35.972Z,8.90
2023-05-18T05:47:03.568Z,8.90
2023-05-18T05:49:30.622Z,8.90
2023-05-18T05:51:57.431Z,8.90
2023-05-18T05:54:24.230Z,8.90
2023-05-18T05:56:51.057Z,8.80
2023-05-18T05:59:17.917Z,8.80
2023-05-18T06:01:44.757Z,8.80
2023-05-18T06:04:12.765Z,8.80
2023-05-18T06:06:39.866Z,8.80
2023-05-18T06:09:07.016Z,8.80
2023-05-18T06:11:33.889Z,8.80
2023-05-18T06:14:01.105Z,8.90
2023-05-18T06:16:27.990Z,8.90
2023-05-18T06:18:54.881Z,8.90
2023-05-18T06:21:21.806Z,8.90
2023-05-18T06:23:48.708Z,8.90
2023-05-18T06:26:15.492Z,9.00
2023-05-18T06:28:42.437Z,9.00
2023-05-18T06:31:09.260Z,9.00
2023-05-18T06:33:36.801Z,9.00
2023-05-18T06:36:03.866Z,9.00
2023-05-18T06:38:30.653Z,9.10
2023-05-18T06:40:57.538Z,9.10
2023-05-18T06:43:26.929Z,9.10
2023-05-18T06:45:54.529Z,9.00
2023-05-18T06:48:26.001Z,9.10
2023-05-18T06:50:52.949Z,9.20
2023-05-18T06:53:19.855Z,9.20
2023-05-18T06:55:46.833Z,9.20
2023-05-18T06:58:13.737Z,9.20
2023-05-18T07:00:40.716Z,9.20
2023-05-18T07:03:08.484Z,9.30
2023-05-18T07:05:39.167Z,9.30
2023-05-18T07:08:07.248Z,9.30
2023-05-18T07:10:35.696Z,9.30
2023-05-18T07:13:02.694Z,9.30
2023-05-18T07:15:30.010Z,9.30
2023-05-18T07:17:57.232Z,9.30
2023-05-18T07:20:26.151Z,9.30
2023-05-18T07:22:55.304Z,9.20
2023-05-18T07:25:23.000Z,9.30
2023-05-18T07:27:52.241Z,9.40
2023-05-18T07:30:19.171Z,9.30
2023-05-18T07:32:46.146Z,9.40
2023-05-18T07:35:13.189Z,9.50
2023-05-18T07:37:40.056Z,9.50
2023-05-18T07:40:09.814Z,9.40
2023-05-18T07:42:37.764Z,9.40
2023-05-18T07:45:04.956Z,9.50
2023-05-18T07:47:31.763Z,9.60
2023-05-18T07:49:58.598Z,9.60
2023-05-18T07:52:25.720Z,9.60
2023-05-18T07:54:54.790Z,9.70
2023-05-18T07:57:21.560Z,9.60
2023-05-18T07:59:48.369Z,9.70
2023-05-18T08:02:16.733Z,9.80
2023-05-18T08:04:43.629Z,9.90
2023-05-18T08:07:10.724Z,9.90
2023-05-18T08:09:37.582Z,9.90
2023-05-18T08:12:05.048Z,9.80
2023-05-18T08:14:31.831Z,9.90
2023-05-18T08:16:58.891Z,10.00
2023-05-18T08:19:27.988Z,10.00
2023-05-18T08:22:02.803Z,10.10
2023-05-18T08:24:30.149Z,10.90
2023-05-18T08:26:57.475Z,10.10
2023-05-18T08:29:25.714Z,10.20
2023-05-18T08:31:52.665Z,10.20
2023-05-18T08:34:19.454Z,10.30
2023-05-18T08:36:46.517Z,10.20
2023-05-18T08:42:48.522Z,10.30
2023-05-18T08:45:23.676Z,10.40
2023-05-18T08:47:51.492Z,10.40
2023-05-18T08:50:21.989Z,10.40
2023-05-18T08:52:54.853Z,10.40
2023-05-18T08:55:22.457Z,10.40
2023-05-18T08:57:55.660Z,10.30
2023-05-18T09:00:24.328Z,10.40
2023-05-18T09:02:51.517Z,10.40
2023-05-18T09:05:18.896Z,10.50
2023-05-18T09:07:45.834Z,10.50
2023-05-18T09:10:13.720Z,10.60
2023-05-18T09:12:42.611Z,10.70
2023-05-18T09:15:10.735Z,10.70
2023-05-18T09:17:37.665Z,10.80
2023-05-18T09:20:07.686Z,10.90
2023-05-18T09:22:40.324Z,10.90
2023-05-18T09:25:10.751Z,11.00
2023-05-18T09:27:38.089Z,11.10
2023-05-18T09:30:05.507Z,11.00
2023-05-18T09:32:34.975Z,11.00
2023-05-18T09:35:06.512Z,11.00
2023-05-18T09:37:33.721Z,11.00
2023-05-18T09:40:01.603Z,11.10
2023-05-18T09:42:57.881Z,11.20
2023-05-18T09:45:26.093Z,11.30
2023-05-18T09:47:53.156Z,11.10
2023-05-18T09:50:23.287Z,11.10
2023-05-18T09:52:50.392Z,11.20
2023-05-18T09:55:17.837Z,11.30
2023-05-18T09:57:54.345Z,11.30
2023-05-18T10:00:23.577Z,11.40
2023-05-18T10:02:54.817Z,11.40
2023-05-18T10:05:27.218Z,11.40
2023-05-18T10:07:54.944Z,11.50
2023-05-18T10:10:23.942Z,11.40
2023-05-18T10:12:51.100Z,11.20
2023-05-18T10:15:21.391Z,11.20
2023-05-18T10:17:48.909Z,11.30
2023-05-18T10:20:20.040Z,11.40
2023-05-18T10:22:47.796Z,11.40
2023-05-18T10:25:25.933Z,11.40
2023-05-18T10:27:56.984Z,11.40
2023-05-18T10:30:23.960Z,11.30
2023-05-18T10:32:50.876Z,11.20
2023-05-18T10:35:17.713Z,11.20
2023-05-18T10:37:50.180Z,11.30
2023-05-18T10:40:18.244Z,11.30
2023-05-18T10:42:45.874Z,11.30
2023-05-18T10:45:12.704Z,11.30
2023-05-18T10:47:39.815Z,11.30
2023-05-18T10:50:07.343Z,11.50
2023-05-18T10:52:36.683Z,11.80
2023-05-18T10:55:04.605Z,11.90
2023-05-18T10:57:44.033Z,12.00
2023-05-18T11:00:11.190Z,12.20
2023-05-18T11:02:42.864Z,12.30
2023-05-18T11:05:10.810Z,12.10
2023-05-18T11:07:38.047Z,11.90
2023-05-18T11:10:09.031Z,12.10
2023-05-18T11:12:38.302Z,12.10
2023-05-18T11:15:06.043Z,12.20
2023-05-18T11:17:33.023Z,12.30
2023-05-18T11:20:05.972Z,12.30
2023-05-18T11:22:46.053Z,12.40
2023-05-18T11:25:28.348Z,12.60
2023-05-18T11:28:24.560Z,12.70
2023-05-18T11:30:51.672Z,12.90
2023-05-18T11:33:28.706Z,12.80
2023-05-18T11:36:11.762Z,12.70
2023-05-18T11:39:02.937Z,12.60
2023-05-18T11:41:39.804Z,12.60
2023-05-18T11:44:14.862Z,12.60
2023-05-18T11:46:52.261Z,12.70
2023-05-18T11:49:20.630Z,12.70
2023-05-18T11:52:07.242Z,12.40
2023-05-18T11:54:44.894Z,12.40
2023-05-18T11:57:11.796Z,12.60
2023-05-18T11:59:42.898Z,13.00
2023-05-18T12:02:15.501Z,13.20
2023-05-18T12:04:50.784Z,13.40
2023-05-18T12:07:21.054Z,13.50
2023-05-18T12:09:51.145Z,13.40
2023-05-18T12:12:20.260Z,13.00
2023-05-18T12:14:56.782Z,12.70
2023-05-18T12:17:24.697Z,12.60
2023-05-18T12:19:51.747Z,12.50
2023-05-18T12:22:18.714Z,12.30
2023-05-18T12:24:45.763Z,12.30
2023-05-18T12:27:13.116Z,12.30
2023-05-18T12:29:41.313Z,12.20
2023-05-18T12:32:12.463Z,12.10
2023-05-18T12:34:39.735Z,12.20
2023-05-18T12:37:07.593Z,12.20
2023-05-18T12:39:35.215Z,12.20
2023-05-18T12:42:17.671Z,12.20
2023-05-18T12:44:44.991Z,12.30
2023-05-18T12:47:12.580Z,12.30
2023-05-18T12:49:44.740Z,12.20
2023-05-18T12:52:13.172Z,12.20
2023-05-18T12:55:00.019Z,12.30
2023-05-18T12:57:27.492Z,12.20
2023-05-18T12:59:54.525Z,12.10
2023-05-18T13:02:28.379Z,11.90
2023-05-18T13:05:08.939Z,12.00
2023-05-18T13:07:39.888Z,12.10
2023-05-18T13:10:08.023Z,12.20
2023-05-18T13:12:50.134Z,12.30
2023-05-18T13:15:18.317Z,12.20
2023-05-18T13:18:05.308Z,12.10
2023-05-18T13:20:36.697Z,12.20
2023-05-18T13:23:07.172Z,12.20
2023-05-18T13:25:34.068Z,12.10
2023-05-18T13:28:02.087Z,12.00
2023-05-18T13:30:29.253Z,12.00
2023-05-18T13:32:56.621Z,12.00
2023-05-18T13:35:23.606Z,11.90
2023-05-18T13:37:50.650Z,12.00
2023-05-18T13:40:18.100Z,12.10
2023-05-18T13:42:45.254Z,12.10
2023-05-18T13:45:14.468Z,12.10
2023-05-18T13:47:43.415Z,12.10
2023-05-18T13:50:11.488Z,12.10
2023-05-18T13:52:38.466Z,12.10
2023-05-18T13:55:07.096Z,12.10
2023-05-18T13:57:34.169Z,12.10
2023-05-18T14:00:05.050Z,12.10
2023-05-18T14:02:31.985Z,12.10
2023-05-18T14:04:58.984Z,12.10
2023-05-18T14:07:25.838Z,12.10
2023-05-18T14:09:52.688Z,12.20
2023-05-18T14:12:19.549Z,12.20
2023-05-18T14:14:46.415Z,12.20
2023-05-18T14:17:13.769Z,12.20
2023-05-18T14:19:40.779Z,12.20
2023-05-18T14:22:07.642Z,12.10
2023-05-18T14:24:34.430Z,12.20
2023-05-18T14:27:01.269Z,12.10
2023-05-18T14:29:28.087Z,12.10
2023-05-18T14:31:54.881Z,12.00
2023-05-18T14:34:21.669Z,12.10
2023-05-18T14:36:48.469Z,12.10
2023-05-18T14:39:15.415Z,12.00
2023-05-18T14:41:42.534Z,12.10
2023-05-18T14:44:10.013Z,12.00
2023-05-18T14:46:37.031Z,11.90
2023-05-18T14:49:03.931Z,11.90
2023-05-18T14:51:31.443Z,11.80
2023-05-18T14:53:58.246Z,11.70
2023-05-18T14:56:25.250Z,11.70
2023-05-18T14:58:52.157Z,11.70
2023-05-18T15:01:19.137Z,11.70
2023-05-18T15:03:46.376Z,11.70
2023-05-18T15:06:13.464Z,11.60
2023-05-18T15:08:40.552Z,11.70
2023-05-18T15:11:07.375Z,11.80
2023-05-18T15:13:34.158Z,11.70
2023-05-18T15:16:01.300Z,11.80
2023-05-18T15:18:28.121Z,11.80
2023-05-18T15:20:54.914Z,11.80
2023-05-18T15:23:21.744Z,11.80
2023-05-18T15:25:48.796Z,11.80
2023-05-18T15:28:15.719Z,11.80
2023-05-18T15:30:42.520Z,11.70
2023-05-18T15:33:09.393Z,11.60
2023-05-18T15:35:36.489Z,11.60
2023-05-18T15:38:03.508Z,11.60
2023-05-18T15:40:30.752Z,11.60
2023-05-18T15:42:57.752Z,11.50
2023-05-18T15:45:24.602Z,11.60
2023-05-18T15:47:51.455Z,11.50
2023-05-18T15:50:18.273Z,11.60
2023-05-18T15:52:45.100Z,11.50
2023-05-18T15:55:12.008Z,11.60
2023-05-18T15:57:38.810Z,11.60
2023-05-18T16:00:06.404Z,11.60
2023-05-18T16:02:33.292Z,11.60
2023-05-18T16:05:00.194Z,11.60
2023-05-18T16:07:26.992Z,11.60
2023-05-18T16:09:53.769Z,11.60
2023-05-18T16:12:20.681Z,11.60
2023-05-18T16:14:47.690Z,11.50
2023-05-18T16:17:14.504Z,11.50
2023-05-18T16:19:41.314Z,11.50
2023-05-18T16:22:09.265Z,11.50
2023-05-18T16:24:36.221Z,11.50
2023-05-18T16:27:03.164Z,11.50
2023-05-18T16:29:29.979Z,11.50
2023-05-18T16:31:56.960Z,11.40
2023-05-18T16:34:23.906Z,11.40
2023-05-18T16:36:50.898Z,11.40
2023-05-18T16:39:17.694Z,11.40
2023-05-18T16:41:44.521Z,11.50
2023-05-18T16:44:12.410Z,11.40
2023-05-18T16:46:39.311Z,11.40
2023-05-18T16:49:06.244Z,11.30
2023-05-18T16:51:33.048Z,11.40
2023-05-18T16:53:59.945Z,11.30
2023-05-18T16:56:27.008Z,11.30
2023-05-18T16:58:54.255Z,11.30
2023-05-18T17:01:28.185Z,11.20
2023-05-18T17:03:55.894Z,11.30
2023-05-18T17:06:22.890Z,11.30
2023-05-18T17:08:57.322Z,11.30
2023-05-18T17:11:26.945Z,11.30
2023-05-18T17:13:54.488Z,11.30
2023-05-18T17:16:22.197Z,11.20
2023-05-18T17:18:49.384Z,11.20
2023-05-18T17:21:16.623Z,11.20
2023-05-18T17:23:43.426Z,11.20
2023-05-18T17:26:10.251Z,11.30
2023-05-18T17:28:37.224Z,11.20
2023-05-18T17:31:04.235Z,11.20
2023-05-18T17:33:31.179Z,11.30
2023-05-18T17:35:58.017Z,11.30
2023-05-18T17:38:24.805Z,11.30
2023-05-18T17:40:51.715Z,11.30
2023-05-18T17:43:18.565Z,11.30
2023-05-18T17:45:45.430Z,11.20
2023-05-18T17:48:12.359Z,11.20
2023-05-18T17:50:39.844Z,11.20
2023-05-18T17:53:06.688Z,11.10
2023-05-18T17:55:33.769Z,11.10
2023-05-18T17:58:02.464Z,11.10
2023-05-18T18:00:29.512Z,11.10
2023-05-18T18:02:56.537Z,11.00
2023-05-18T18:05:23.461Z,11.00
2023-05-18T18:07:50.308Z,11.00
2023-05-18T18:10:17.182Z,11.00
2023-05-18T18:12:44.071Z,10.90
2023-05-18T18:15:11.450Z,10.90
2023-05-18T18:17:38.401Z,10.90
2023-05-18T18:20:06.250Z,10.90
2023-05-18T18:22:35.079Z,10.90
2023-05-18T18:25:02.729Z,11.00
2023-05-18T18:27:29.619Z,10.90
2023-05-18T18:29:56.570Z,10.90
2023-05-18T18:32:23.446Z,10.90
2023-05-18T18:34:51.184Z,10.90
2023-05-18T18:37:18.369Z,10.90
2023-05-18T18:39:45.383Z,10.80
2023-05-18T18:42:12.586Z,10.80
2023-05-18T18:44:39.481Z,10.80
2023-05-18T18:47:06.468Z,10.80
2023-05-18T18:49:33.306Z,10.70
2023-05-18T18:52:00.209Z,10.70
2023-05-18T18:54:27.122Z,10.70
2023-05-18T18:56:54.232Z,10.70
2023-05-18T18:59:21.202Z,10.70
2023-05-18T19:01:48.127Z,10.60
2023-05-18T19:04:14.981Z,10.60
2023-05-18T19:06:42.902Z,10.60
2023-05-18T19:09:09.735Z,10.60
2023-05-18T19:11:36.826Z,10.60
2023-05-18T19:14:04.588Z,10.60
2023-05-18T19:16:33.002Z,10.60
2023-05-18T19:18:59.936Z,10.50
2023-05-18T19:21:26.907Z,10.50
2023-05-18T19:23:53.763Z,10.50
2023-05-18T19:26:21.635Z,10.40
2023-05-18T19:28:52.399Z,10.30
2023-05-18T19:31:19.242Z,10.40
2023-05-18T19:33:46.112Z,10.30
2023-05-18T19:36:13.777Z,10.30
2023-05-18T19:38:40.670Z,10.30
2023-05-18T19:41:07.554Z,10.30
2023-05-18T19:43:34.339Z,10.30
2023-05-18T19:46:01.180Z,10.20
2023-05-18T19:48:27.998Z,10.20
2023-05-18T19:50:54.785Z,10.10
2023-05-18T19:53:22.942Z,10.10
2023-05-18T19:55:49.797Z,10.20
2023-05-18T19:58:16.662Z,10.10
2023-05-18T20:00:44.362Z,9.90
2023-05-18T20:03:11.220Z,9.80
2023-05-18T20:05:38.502Z,9.60
2023-05-18T20:08:07.537Z,9.50
2023-05-18T20:10:34.418Z,9.40
2023-05-18T20:13:01.516Z,9.40
2023-05-18T20:15:30.062Z,9.40
2023-05-18T20:17:56.880Z,9.40
2023-05-18T20:20:23.885Z,9.30
2023-05-18T20:22:50.698Z,9.30
2023-05-18T20:25:17.882Z,9.30
2023-05-18T20:27:44.656Z,9.30
2023-05-18T20:30:12.384Z,9.40
2023-05-18T20:32:39.256Z,9.40
2023-05-18T20:35:06.413Z,9.40
2023-05-18T20:37:34.609Z,9.40
2023-05-18T20:40:01.652Z,9.40
2023-05-18T20:42:38.587Z,9.30
2023-05-18T20:45:07.187Z,9.30
2023-05-18T20:47:34.494Z,9.30
2023-05-18T20:50:02.874Z,9.30
2023-05-18T20:52:29.697Z,9.30
2023-05-18T20:54:56.548Z,9.30
2023-05-18T20:57:23.404Z,9.30
2023-05-18T20:59:50.200Z,9.20
2023-05-18T21:02:17.051Z,9.20
2023-05-18T21:04:43.870Z,9.10
2023-05-18T21:07:10.737Z,9.10
2023-05-18T21:09:37.549Z,9.00
2023-05-18T21:12:05.376Z,9.00
2023-05-18T21:14:32.176Z,9.00
2023-05-18T21:17:01.461Z,9.00
2023-05-18T21:19:28.280Z,9.00
2023-05-18T21:21:55.631Z,8.90
2023-05-18T21:24:22.565Z,8.90
2023-05-18T21:26:49.519Z,9.00
2023-05-18T21:29:16.532Z,9.00
2023-05-18T21:31:43.610Z,9.00
2023-05-18T21:34:10.494Z,9.10
2023-05-18T21:36:37.381Z,9.10
2023-05-18T21:39:05.686Z,9.00
2023-05-18T21:41:33.544Z,9.00
2023-05-18T21:44:00.386Z,9.10
2023-05-18T21:46:27.423Z,9.10
2023-05-18T21:48:54.329Z,9.10
2023-05-18T21:51:21.196Z,9.00
2023-05-18T21:53:49.327Z,9.00
2023-05-18T21:56:16.150Z,9.00
2023-05-18T21:58:42.963Z,9.00
2023-05-18T22:01:09.860Z,9.00
2023-05-18T22:03:36.766Z,9.00
2023-05-18T22:06:03.858Z,8.90
2023-05-18T22:08:30.942Z,8.90
2023-05-18T22:10:57.731Z,9.00
2023-05-18T22:13:24.633Z,8.90
2023-05-18T22:15:51.532Z,8.90
2023-05-18T22:18:19.306Z,8.90
2023-05-18T22:20:46.090Z,8.80
2023-05-18T22:23:12.948Z,8.80
2023-05-18T22:25:39.728Z,8.80
2023-05-18T22:28:06.570Z,8.80
2023-05-18T22:30:33.846Z,8.80
2023-05-18T22:33:01.113Z,8.80
2023-05-18T22:35:28.002Z,8.80
2023-05-18T22:37:54.904Z,8.80
2023-05-18T22:40:21.912Z,8.80
2023-05-18T22:42:48.722Z,8.90
2023-05-18T22:45:15.645Z,8.90
2023-05-18T22:47:45.207Z,8.90
2023-05-18T22:50:12.146Z,8.90
2023-05-18T22:52:40.581Z,8.90
2023-05-18T22:55:13.386Z,8.80
2023-05-18T22:57:41.032Z,8.90
2023-05-18T23:00:09.269Z,8.90
2023-05-18T23:02:36.490Z,8.90
2023-05-18T23:05:04.926Z,8.90
2023-05-18T23:07:32.450Z,9.00
2023-05-18T23:09:59.261Z,9.00
2023-05-18T23:12:26.312Z,9.00
2023-05-18T23:14:55.828Z,9.00
2023-05-18T23:17:23.142Z,8.90
2023-05-18T23:19:50.449Z,8.90
2023-05-18T23:22:17.289Z,8.90
2023-05-18T23:24:44.217Z,8.80
2023-05-18T23:27:11.356Z,8.80
2023-05-18T23:29:38.532Z,8.70
2023-05-18T23:32:05.717Z,8.60
2023-05-18T23:34:32.662Z,8.50
2023-05-18T23:37:11.728Z,8.50
2023-05-18T23:39:41.632Z,8.40
2023-05-18T23:42:08.919Z,8.30
2023-05-18T23:44:35.934Z,8.30
2023-05-18T23:47:03.037Z,8.10
2023-05-18T23:49:30.264Z,8.00
2023-05-18T23:52:00.395Z,7.90
2023-05-18T23:54:27.548Z,7.80
2023-05-18T23:56:54.777Z,7.70
2023-05-18T23:59:21.647Z,7.60
